Latest Weather Observations for Gladstone

IDQ60801

Issued at 8:05 am EST Tuesday 25 November 2014 (issued every 30 minutes, with the page automatically refreshed every 10 minutes)

About weather observations | Map of weather stations | Latest weather observations for QLD | Other Formats
Station Details ID: 039123 Name: GLADSTONE RADAR Lat: -23.86 Lon: 151.26 Height: 74.5 m
Data from the previous 72 hours. | See also: Recent months at Gladstone
Date/Time
EST
Temp
°C
App
Temp
°C
Dew
Point
Rel
Hum
%
Delta-T
°C
Wind Press
QNH
hPa
Press
MSL
hPa
Rain
since 9 am
mm
Dir
 
Spd
km/h
Gust
km/h
Spd
kts
Gust
kts
25/08:00am 29.3 30.5 19.0 53 6.7 ENE 11 19 6 10 1016.2 1015.8 0.0
25/07:30am 28.5 30.0 19.7 59 5.7 ENE 11 17 6 9 1016.1 1015.7 0.0
25/07:00am 26.9 27.7 19.0 62 5.1 E 13 17 7 9 1015.8 1015.4 0.0
25/06:30am 26.6 27.8 20.0 67 4.3 ENE 13 19 7 10 1015.5 1015.1 0.0
25/06:00am 25.0 27.2 20.5 76 2.9 ENE 9 15 5 8 1015.3 1014.9 0.0
25/05:30am 23.6 25.8 20.3 82 2.1 ENE 9 13 5 7 1015.0 1014.6 0.0
25/05:00am 23.1 24.7 19.9 82 2.1 ENE 11 15 6 8 1014.7 1014.3 0.0
25/04:30am 23.1 24.8 20.1 83 1.9 ENE 11 17 6 9 1014.4 1014.0 0.0
25/04:00am 23.0 24.8 19.6 81 2.2 ENE 9 17 5 9 1014.3 1013.9 0.0
25/03:30am 23.2 24.4 19.8 81 2.2 ENE 13 20 7 11 1014.2 1013.8 0.0
25/03:00am 23.5 24.3 19.8 80 2.4 ENE 15 24 8 13 1014.2 1013.8 0.0
25/02:30am 23.9 24.6 20.4 81 2.3 NE 17 26 9 14 1014.1 1013.7 0.0
25/02:00am 23.5 24.7 20.0 81 2.3 NE 13 24 7 13 1014.3 1013.9 0.0
25/01:30am 23.7 24.2 20.0 80 2.4 NE 17 24 9 13 1014.4 1014.0 0.0
25/01:00am 23.9 25.5 20.0 79 2.5 NE 11 19 6 10 1014.8 1014.4 0.0
25/12:30am 24.0 24.9 20.1 79 2.5 NE 15 20 8 11 1015.0 1014.6 0.0
25/12:00am 24.0 24.8 19.9 78 2.7 NE 15 24 8 13 1015.4 1015.0 0.0
 
Date/Time
EST
Temp
°C
App
Temp
°C
Dew
Point
Rel
Hum
%
Delta-T
°C
Wind Press
QNH
hPa
Press
MSL
hPa
Rain
since 9 am
mm
Dir
 
Spd
km/h
Gust
km/h
Spd
kts
Gust
kts
24/11:30pm 24.1 24.4 19.6 76 2.9 NE 17 22 9 12 1015.5 1015.1 0.0
24/11:00pm 24.3 25.6 20.2 78 2.7 NE 13 20 7 11 1015.8 1015.4 0.0
24/10:30pm 24.6 25.9 20.1 76 2.9 NE 13 19 7 10 1016.0 1015.6 0.0
24/10:00pm 24.6 25.8 19.9 75 3.0 NE 13 22 7 12 1016.0 1015.6 0.0
24/09:30pm 24.5 26.0 19.8 75 3.0 NE 11 20 6 11 1015.9 1015.5 0.0
24/09:00pm 24.6 25.9 20.1 76 2.9 NE 13 22 7 12 1015.7 1015.3 0.0
24/08:30pm 24.7 26.0 20.2 76 2.9 NE 13 24 7 13 1015.4 1015.0 0.0
24/08:00pm 24.7 25.2 20.0 75 3.0 NE 17 30 9 16 1015.1 1014.7 0.0
24/07:30pm 24.9 26.4 20.6 77 2.8 NE 13 24 7 13 1014.9 1014.5 0.0
24/07:00pm 24.9 25.2 19.7 73 3.4 NE 17 26 9 14 1014.7 1014.3 0.0
24/06:30pm 25.1 25.5 19.9 73 3.4 NE 17 26 9 14 1014.4 1014.0 0.0
24/06:00pm 25.7 26.2 20.0 71 3.7 NE 17 24 9 13 1014.1 1013.7 0.0
24/05:30pm 26.2 26.2 19.8 68 4.2 NE 19 30 10 16 1013.6 1013.2 0.0
24/05:00pm 26.9 27.0 20.0 66 4.5 NE 19 26 10 14 1013.4 1013.0 0.0
24/04:30pm 27.8 27.6 19.3 60 5.5 NE 19 30 10 16 1013.4 1013.0 0.0
24/04:00pm 28.5 27.8 18.6 55 6.4 NE 20 28 11 15 1013.4 1013.0 0.0
24/03:30pm 29.5 29.1 18.9 53 6.9 NE 19 28 10 15 1013.5 1013.1 0.0
24/03:00pm 29.7 29.2 19.1 53 6.9 ENE 20 30 11 16 1013.9 1013.5 0.0
24/02:30pm 30.3 30.3 20.2 54 6.7 ENE 20 32 11 17 1014.3 1013.9 0.0
24/02:00pm 30.9 30.8 19.9 52 7.3 ENE 20 28 11 15 1014.6 1014.2 0.0
24/01:30pm 31.4 30.9 19.1 48 8.0 NE 20 30 11 16 1015.0 1014.6 0.0
24/01:00pm 31.8 31.7 18.7 45 8.5 ENE 17 28 9 15 1015.4 1015.0 0.0
24/12:30pm 31.1 30.3 18.5 47 8.2 ENE 20 30 11 16 1015.6 1015.2 0.0
24/12:00pm 31.8 31.6 19.4 47 8.1 ENE 19 28 10 15 1016.2 1015.8 0.0
24/11:30am 31.6 30.9 18.6 46 8.4 NE 20 28 11 15 1016.4 1016.0 0.0
24/11:00am 32.4 32.0 18.9 44 8.8 NE 19 28 10 15 1016.8 1016.4 0.0
24/10:30am 32.1 32.4 20.7 51 7.6 ENE 20 28 11 15 1017.0 1016.6 0.0
24/10:00am 30.1 29.8 19.2 52 7.1 NE 19 28 10 15 1017.3 1016.9 0.0
24/09:30am 28.2 28.8 19.4 59 5.7 NE 15 24 8 13 1017.5 1017.1 0.0
24/09:00am 29.7 31.0 20.8 58 5.9 ENE 15 22 8 12 1017.5 1017.1 0.0
24/08:30am 27.5 28.6 19.6 62 5.1 NE 13 20 7 11 1017.6 1017.2 0.0
24/08:00am 29.2 31.1 21.4 63 5.2 NE 13 20 7 11 1017.6 1017.2 0.0
24/07:30am 26.6 29.1 21.1 72 3.6 NE 9 17 5 9 1017.4 1017.0 0.0
24/07:00am 26.1 28.9 20.9 73 3.4 NNE 7 13 4 7 1017.1 1016.7 0.0
24/06:30am 24.7 26.7 20.8 79 2.6 NE 11 17 6 9 1016.9 1016.5 0.0
24/06:00am 24.8 26.9 20.9 79 2.6 NE 11 17 6 9 1016.6 1016.2 0.0
24/05:30am 24.4 26.5 20.9 81 2.3 NE 11 20 6 11 1016.4 1016.0 0.0
24/05:00am 24.1 25.7 20.8 82 2.2 NE 13 22 7 12 1016.0 1015.6 0.0
24/04:30am 24.2 26.0 21.1 83 2.0 NE 13 20 7 11 1016.0 1015.6 0.0
24/04:00am 24.3 26.0 21.0 82 2.2 NE 13 20 7 11 1015.8 1015.4 0.0
24/03:30am 24.0 25.5 21.3 85 1.8 ENE 15 22 8 12 1015.9 1015.5 0.0
24/03:00am 23.6 25.4 21.1 86 1.6 ENE 13 19 7 10 1015.8 1015.4 0.0
24/02:30am 23.7 24.7 21.0 85 1.8 ENE 17 22 9 12 1015.6 1015.2 0.0
24/02:00am 23.4 25.0 20.7 85 1.8 ENE 13 20 7 11 1015.7 1015.3 0.0
24/01:30am 23.4 24.8 20.3 83 2.0 ENE 13 19 7 10 1015.8 1015.4 0.0
24/01:00am 23.4 24.7 20.1 82 2.1 NE 13 20 7 11 1015.9 1015.5 0.0
24/12:30am 23.4 24.4 19.5 79 2.5 ENE 13 19 7 10 1016.2 1015.8 0.0
24/12:00am 23.6 23.7 19.1 76 2.9 NE 17 24 9 13 1016.4 1016.0 0.0
 
Date/Time
EST
Temp
°C
App
Temp
°C
Dew
Point
Rel
Hum
%
Delta-T
°C
Wind Press
QNH
hPa
Press
MSL
hPa
Rain
since 9 am
mm
Dir
 
Spd
km/h
Gust
km/h
Spd
kts
Gust
kts
23/11:30pm 23.5 23.5 19.0 76 2.9 ENE 17 22 9 12 1016.8 1016.4 0.0
23/11:00pm 23.7 23.5 18.6 73 3.2 ENE 17 24 9 13 1017.1 1016.7 0.0
23/10:30pm 24.1 23.8 19.2 74 3.1 ENE 19 24 10 13 1017.3 1016.9 0.0
23/10:00pm 23.9 24.5 19.4 76 2.9 ENE 15 19 8 10 1017.3 1016.9 0.0
23/09:30pm 24.1 24.3 19.4 75 3.0 ENE 17 24 9 13 1017.0 1016.6 0.0
23/09:00pm 24.2 24.5 19.5 75 3.0 ENE 17 26 9 14 1016.8 1016.4 0.0
23/08:30pm 24.1 24.3 19.4 75 3.0 E 17 26 9 14 1016.5 1016.1 0.0
23/08:00pm 24.3 24.6 19.6 75 3.0 ENE 17 28 9 15 1016.1 1015.7 0.0
23/07:30pm 24.4 24.1 19.5 74 3.2 ENE 20 28 11 15 1015.8 1015.4 0.0
23/07:00pm 24.5 24.2 19.1 72 3.5 ENE 19 26 10 14 1015.7 1015.3 0.0
23/06:30pm 24.7 23.8 18.2 67 4.1 ENE 20 28 11 15 1015.3 1014.9 0.0
23/06:00pm 25.3 24.5 18.0 64 4.6 ENE 19 28 10 15 1015.0 1014.6 0.0
23/05:30pm 26.0 25.8 18.4 63 4.8 ENE 17 26 9 14 1014.8 1014.4 0.0
23/05:00pm 26.7 26.1 18.8 62 5.1 ENE 20 28 11 15 1014.8 1014.4 0.0
23/04:30pm 27.7 27.2 19.2 60 5.5 ENE 20 32 11 17 1014.8 1014.4 0.0
23/04:00pm 28.4 28.6 19.3 57 5.9 ENE 17 28 9 15 1014.8 1014.4 0.0
23/03:30pm 29.6 29.3 19.6 55 6.6 ENE 20 30 11 16 1015.0 1014.6 0.0
23/03:00pm 29.9 29.5 19.0 52 7.1 ENE 19 28 10 15 1015.1 1014.7 0.0
23/02:30pm 30.8 30.9 19.2 50 7.6 ENE 17 24 9 13 1015.4 1015.0 0.0
23/02:00pm 30.8 30.5 19.2 50 7.6 ENE 19 30 10 16 1015.7 1015.3 0.0
23/01:30pm 30.8 29.9 18.2 47 8.1 ENE 20 32 11 17 1016.0 1015.6 0.0
23/01:00pm 31.3 30.6 18.3 46 8.4 ENE 19 28 10 15 1016.3 1015.9 0.0
23/12:30pm 32.0 31.6 18.9 45 8.6 ENE 19 28 10 15 1016.5 1016.1 0.0
23/12:00pm 31.5 30.9 18.5 46 8.4 ENE 19 30 10 16 1016.9 1016.5 0.0
23/11:30am 32.0 32.3 19.6 47 8.2 ENE 17 26 9 14 1017.2 1016.8 0.0
23/11:00am 31.4 31.0 19.4 49 7.9 ENE 20 32 11 17 1017.5 1017.1 0.0
23/10:30am 30.9 30.5 18.9 48 7.8 ENE 19 26 10 14 1017.8 1017.4 0.0
23/10:00am 30.8 31.0 18.5 47 7.9 ENE 15 22 8 12 1018.0 1017.6 0.0
23/09:30am 30.9 31.6 19.6 51 7.4 ENE 15 24 8 13 1018.1 1017.7 0.0
23/09:00am 30.2 31.2 20.2 55 6.6 ENE 15 22 8 12 1018.2 1017.8 0.0
23/08:30am 29.9 31.6 21.0 59 5.9 NE 13 20 7 11 1018.1 1017.7 0.0
23/08:00am 29.3 31.0 21.0 61 5.5 NE 13 20 7 11 1017.9 1017.5 0.0
23/07:30am 27.2 29.6 22.2 74 3.4 NNE 13 19 7 10 1017.5 1017.1 0.0
23/07:00am 25.4 28.4 21.3 78 2.7 N 7 11 4 6 1017.2 1016.8 0.0
23/06:30am 25.9 28.4 21.1 75 3.2 NNE 9 15 5 8 1016.8 1016.4 0.0
23/06:00am 24.9 27.6 21.4 81 2.3 NNE 9 17 5 9 1016.5 1016.1 0.0
23/05:30am 23.9 26.5 21.2 85 1.8 NNE 9 15 5 8 1016.0 1015.6 0.0
23/05:00am 23.9 26.5 21.2 85 1.8 NE 9 17 5 9 1015.7 1015.3 0.0
23/04:30am 23.8 26.2 21.5 87 1.5 NNE 11 17 6 9 1015.5 1015.1 0.0
23/04:00am 23.8 26.3 21.1 85 1.8 NE 9 17 5 9 1015.2 1014.8 0.0
23/03:30am 23.9 26.1 21.2 85 1.8 NE 11 17 6 9 1015.2 1014.8 0.0
23/03:00am 24.0 26.3 21.3 85 1.8 NE 11 20 6 11 1015.2 1014.8 0.0
23/02:30am 24.1 25.8 21.0 83 2.0 NNE 13 22 7 12 1015.1 1014.7 0.0
23/02:00am 24.3 25.6 20.8 81 2.3 NE 15 24 8 13 1015.0 1014.6 0.0
23/01:30am 24.7 26.6 21.4 82 2.2 NE 13 22 7 12 1015.2 1014.8 0.0
23/01:00am 24.7 27.5 21.6 83 2.1 NNE 9 19 5 10 1015.6 1015.2 0.0
23/12:30am 24.9 27.2 22.0 84 1.9 NNE 13 22 7 12 1015.8 1015.4 0.0
23/12:00am 24.9 28.0 22.2 85 1.8 NNE 9 17 5 9 1016.1 1015.7 0.0
 
Date/Time
EST
Temp
°C
App
Temp
°C
Dew
Point
Rel
Hum
%
Delta-T
°C
Wind Press
QNH
hPa
Press
MSL
hPa
Rain
since 9 am
mm
Dir
 
Spd
km/h
Gust
km/h
Spd
kts
Gust
kts
22/11:30pm 25.0 27.6 21.9 83 2.1 NNE 11 19 6 10 1016.1 1015.7 0.0
22/11:00pm 24.9 27.8 22.4 86 1.7 NNE 11 19 6 10 1016.2 1015.8 0.0
22/10:30pm 24.7 27.2 21.8 84 1.9 NE 11 20 6 11 1016.2 1015.8 0.0
22/10:00pm 24.9 28.0 22.2 85 1.8 NNE 9 20 5 11 1016.2 1015.8 0.0
22/09:30pm 25.1 28.0 22.4 85 1.8 NNE 11 20 6 11 1016.1 1015.7 0.0
22/09:00pm 25.2 28.0 22.3 84 1.9 NE 11 19 6 10 1015.7 1015.3 0.0
22/08:30pm 25.2 28.4 22.3 84 1.9 NE 9 17 5 9 1015.4 1015.0 0.0
22/08:00pm 25.3 27.9 22.6 85 1.8 NNE 13 22 7 12 1015.2 1014.8 0.0
22/07:30pm 25.3 27.8 22.4 84 2.0 NE 13 20 7 11 1014.9 1014.5 0.0
22/07:00pm 25.3 27.5 22.6 85 1.8 NNE 15 26 8 14 1014.5 1014.1 0.0
22/06:30pm 25.5 27.4 22.8 85 1.8 NE 17 26 9 14 1014.3 1013.9 0.0
22/06:00pm 26.0 28.0 22.9 83 2.1 NE 17 32 9 17 1013.9 1013.5 0.0
22/05:30pm 26.3 28.0 22.4 79 2.6 NE 17 28 9 15 1013.4 1013.0 0.0
22/05:00pm 26.9 28.0 21.9 74 3.4 NE 19 30 10 16 1013.1 1012.7 0.0
22/04:30pm 27.8 29.6 22.5 73 3.6 NE 17 30 9 16 1012.9 1012.5 0.0
22/04:00pm 28.6 29.3 22.3 68 4.3 NE 22 32 12 17 1012.8 1012.4 0.0
22/03:30pm 29.0 29.9 22.0 66 4.7 NE 20 32 11 17 1012.9 1012.5 0.0
22/03:00pm 29.8 30.9 22.3 64 5.1 NE 20 32 11 17 1013.2 1012.8 0.0
22/02:30pm 30.0 30.8 22.4 63 5.2 NE 22 32 12 17 1013.4 1013.0 0.0
22/02:00pm 30.2 31.2 22.1 62 5.5 NE 20 33 11 18 1013.8 1013.4 0.0
22/01:30pm 30.2 30.8 22.1 62 5.5 NE 22 35 12 19 1014.0 1013.6 0.0
22/01:00pm 30.8 31.7 22.7 62 5.5 NE 22 33 12 18 1014.2 1013.8 0.0
22/12:30pm 31.9 33.5 23.2 60 6.0 NE 20 33 11 18 1014.6 1014.2 0.0
22/12:00pm 31.8 33.0 22.5 58 6.4 NE 20 32 11 17 1015.1 1014.7 0.0
22/11:30am 31.8 32.9 21.9 55 6.7 NE 19 30 10 16 1015.3 1014.9 0.0
22/11:00am 31.7 33.1 21.8 55 6.7 NE 17 30 9 16 1015.8 1015.4 0.0
22/10:30am 31.7 33.4 22.4 58 6.4 NE 17 30 9 16 1016.2 1015.8 0.0
22/10:00am 33.1 35.8 22.8 54 7.1 NE 13 22 7 12 1016.3 1015.9 0.0
22/09:30am 31.6 34.3 22.9 60 6.0 NE 13 20 7 11 1016.4 1016.0 0.0
22/09:00am 30.9 34.2 22.5 61 5.7 NE 9 19 5 10 1016.4 1016.0 0.0
22/08:30am 27.9 30.7 20.5 64 4.9 NNW 6 11 3 6 1016.5 1016.1 0.0

Other Formats:

Comma delimited format used in spreadsheet applications
http://www.bom.gov.au/fwo/IDQ60801/IDQ60801.94380.axf

JavaScript Object Notation format (JSON) in row-major order
http://www.bom.gov.au/fwo/IDQ60801/IDQ60801.94380.json